• Join FlightAware (Why Join?)
  • Login
  • US Flag 
06:33PM EDT


 

Airport Tracker/Info


-or-


 

Live Flight TrackerFlight Track Log ✈ UPS752 ✈ 19-Jul-2013 ✈ KSDF - KDFW

Flight Track Log - Related Links

Times and Time Zones

All times are in EDT time to prevent confusion due to time zone crossing. See the UPS752 flight status page for this flight to view local times or setup timezone preferences in your user account.

Time Position Orientation Groundspeed Altitude Reporting Facility
EDT Latitude Longitude Course Direction KTS MPH feet Rate Location/Type
03:41AM 38.1660 -85.7400 295° West 15 17  Level FlightAware
03:42AM 38.1670 -85.7410 322° Northwest 19 22 60 Level FlightAware
03:42AM 38.1710 -85.7420 349° North 22 25 60 Level FlightAware
03:43AM 38.1750 -85.7430 349° North 28 32 60 Level FlightAware
03:44AM 38.1790 -85.7440 349° North 22 25 120 Level FlightAware
03:44AM 38.1800 -85.7450 322° Northwest 21 24 120 Level FlightAware
03:44AM 38.1840 -85.7460 349° North 30 35 120 Level FlightAware
03:46AM 38.1850 -85.7470 322° Northwest 29 33 180 Level FlightAware
03:46AM 38.1840 -85.7480 218° Southwest 19 22 480 Level FlightAware
03:47AM 38.1810 -85.7470 165° South 82 94 660 Level FlightAware
03:47AM 38.1650 -85.7410 164° South 175 201 500 1,740 Climbing FlightAware
03:48AM 38.1470 -85.7370 170° South 172 198 1,600 2,100 Climbing FlightAware
03:48AM 38.1150 -85.7410 186° South 236 272 2,400 2,340 Climbing FlightAware
03:48AM 38.0810 -85.7470 188° South 263 303 3,900 3,240 Climbing FlightAware
03:49AM 38.0610 -85.7540 195° South 265 305 4,900 3,840 Climbing FlightAware
03:49AM 38.0490 -85.7640 213° Southwest 266 306 5,700 3,900 Climbing FlightAware
03:49AM 38.0390 -85.7830 236° Southwest 270 311 6,600 3,480 Climbing FlightAware
03:50AM 38.0290 -85.8260 254° West 283 326 8,200 3,120 Climbing FlightAware
03:50AM 38.0170 -85.8720 252° West 296 341 9,600 2,340 Climbing FlightAware
03:51AM 37.9910 -85.9390 244° Southwest 345 397 10,900 1,860 Climbing FlightAware
03:52AM 37.9520 -86.0280 241° Southwest 398 458 12,300 1,860 Climbing FlightAware
03:52AM 37.9250 -86.0970 244° Southwest 423 487 13,500 2,520 Climbing FlightAware
03:53AM 37.8830 -86.2100 245° Southwest 439 505 15,800 2,880 Climbing FlightAware
03:54AM 37.8470 -86.3010 243° Southwest 445 512 17,700 2,820 Climbing FlightAware
03:54AM 37.8120 -86.3910 244° Southwest 452 520 19,500 1,200 Climbing FlightAware
03:55AM 37.7720 -86.4890 243° Southwest 452 520 19,500 1,260 Level FlightAware
03:56AM 37.7160 -86.6360 244° Southwest 447 514 21,800 2,760 Climbing FlightAware
03:57AM 37.6750 -86.7410 244° Southwest 499 574 23,800 2,400 Climbing FlightAware
03:57AM 37.6230 -86.8710 243° Southwest 512 589 25,200 2,040 Climbing FlightAware
03:58AM 37.5820 -86.9750 244° Southwest 510 587 26,800 2,460 Climbing FlightAware
03:59AM 37.5380 -87.0840 243° Southwest 504 580 28,500 2,460 Climbing FlightAware
03:59AM 37.4910 -87.2010 243° Southwest 495 570 30,400 2,340 Climbing FlightAware
04:00AM 37.4540 -87.2930 243° Southwest 493 567 31,700 1,920 Climbing FlightAware
04:01AM 37.4110 -87.3990 243° Southwest 491 565 32,900 1,500 Climbing FlightAware
04:01AM 37.3830 -87.4690 243° Southwest 490 564 33,700 720 Climbing FlightAware
04:02AM 37.3250 -87.6140 243° Southwest 488 562 34,000 180 Climbing FlightAware
04:03AM 37.2830 -87.7170 243° Southwest 491 565 34,000  Level FlightAware
04:04AM 37.2410 -87.8180 242° Southwest 491 565 34,000  Level FlightAware
04:04AM 37.1970 -87.9260 243° Southwest 491 565 34,000  Level FlightAware
04:05AM 37.1510 -88.0400 243° Southwest 492 566 34,000  Level FlightAware
04:06AM 37.1150 -88.1260 242° Southwest 493 567 34,000  Level FlightAware
04:06AM 37.0620 -88.2540 243° Southwest 492 566 34,000  Level FlightAware
04:07AM 37.0070 -88.3880 243° Southwest 491 565 34,000  Level FlightAware
04:08AM 36.9480 -88.5270 242° Southwest 490 564 34,000  Level FlightAware
04:09AM 36.9080 -88.6220 242° Southwest 489 563 34,000  Level FlightAware
04:09AM 36.8670 -88.7210 243° Southwest 488 562 34,000  Level FlightAware
04:10AM 36.8200 -88.8310 242° Southwest 489 563 34,000  Level FlightAware
04:11AM 36.7860 -88.9130 243° Southwest 489 563 34,000  Level FlightAware
04:12AM 36.7410 -89.0180 242° Southwest 489 563 34,000  Level FlightAware
04:13AM 36.6860 -89.1470 242° Southwest 489 563 34,000  Level FlightAware
04:14AM 36.6220 -89.2980 242° Southwest 494 568 34,100  Climbing FlightAware
04:14AM 36.5770 -89.4030 242° Southwest 494 568 34,100  Level FlightAware
04:15AM 36.5030 -89.5720 241° Southwest 500 575 34,100  Level FlightAware
04:16AM 36.4690 -89.6490 241° Southwest 500 575 34,100  Level FlightAware
04:16AM 36.4350 -89.7260 241° Southwest 500 575 34,100 -120 Level FlightAware
04:17AM 36.3690 -89.8810 242° Southwest 499 574 34,000 -60 Descending FlightAware
04:18AM 36.3070 -90.0230 242° Southwest 498 573 34,000  Level FlightAware
04:19AM 36.2610 -90.1250 241° Southwest 498 573 34,000  Level FlightAware
04:20AM 36.2270 -90.2020 241° Southwest 498 573 34,000  Level FlightAware
04:20AM 36.1600 -90.3600 242° Southwest 496 571 34,000  Level FlightAware
04:21AM 36.1150 -90.4600 241° Southwest 495 570 34,000  Level FlightAware
04:22AM 36.0660 -90.5690 241° Southwest 496 571 34,000  Level FlightAware
04:22AM 36.0220 -90.6680 241° Southwest 496 571 34,000  Level FlightAware
04:23AM 35.9870 -90.7480 242° Southwest 497 572 34,000  Level FlightAware
04:24AM 35.9280 -90.8790 241° Southwest 498 573 34,000  Level FlightAware
04:25AM 35.8890 -90.9630 240° Southwest 498 573 34,000  Level FlightAware
04:25AM 35.8410 -91.0660 240° Southwest 498 573 34,000  Level FlightAware
04:26AM 35.7810 -91.2030 242° Southwest 500 575 34,000  Level FlightAware
04:27AM 35.7160 -91.3470 241° Southwest 501 577 34,000  Level FlightAware
04:28AM 35.6560 -91.4780 241° Southwest 502 578 34,000  Level FlightAware
04:28AM 35.6160 -91.5670 241° Southwest 503 579 34,000  Level FlightAware
04:29AM 35.5650 -91.6760 240° Southwest 503 579 34,000  Level FlightAware
04:30AM 35.4910 -91.8370 241° Southwest 505 581 34,000  Level FlightAware
04:31AM 35.4510 -91.9240 241° Southwest 505 581 34,000  Level FlightAware
04:32AM 35.4030 -92.0270 240° Southwest 508 585 34,000  Level FlightAware
04:32AM 35.3510 -92.1380 240° Southwest 508 585 34,000  Level FlightAware
04:33AM 35.3150 -92.2150 240° Southwest 508 585 34,000  Level FlightAware
04:34AM 35.2670 -92.3160 240° Southwest 508 585 34,000  Level FlightAware
04:34AM 35.2010 -92.4580 240° Southwest 503 579 34,000 60 Level FlightAware
04:35AM 35.1650 -92.5350 240° Southwest 503 579 34,100  Climbing FlightAware
04:36AM 35.1180 -92.6350 240° Southwest 500 575 34,000 -120 Descending FlightAware
04:37AM 35.0560 -92.7630 239° Southwest 499 574 34,000  Level FlightAware
04:37AM 35.0200 -92.8370 239° Southwest 499 574 34,000  Level FlightAware
04:38AM 34.9720 -92.9330 239° Southwest 499 574 34,000  Level FlightAware
04:39AM 34.9360 -93.0070 239° Southwest 499 574 34,000  Level FlightAware
04:39AM 34.8860 -93.1080 239° Southwest 499 574 34,000  Level FlightAware
04:40AM 34.8120 -93.2740 242° Southwest 502 578 34,000  Level FlightAware
04:41AM 34.7530 -93.3970 240° Southwest 500 575 34,000  Level FlightAware
04:42AM 34.7010 -93.5020 239° Southwest 500 575 34,000  Level FlightAware
04:42AM 34.6650 -93.5760 239° Southwest 500 575 34,000  Level FlightAware
04:43AM 34.6150 -93.6760 239° Southwest 500 575 34,000  Level FlightAware
04:44AM 34.5780 -93.7500 239° Southwest 500 575 34,000  Level FlightAware
04:45AM 34.4880 -93.9390 240° Southwest 498 573 34,000  Level FlightAware
04:45AM 34.4510 -94.0140 239° Southwest 498 573 34,000  Level FlightAware
04:46AM 34.3910 -94.1360 239° Southwest 498 573 34,000  Level FlightAware
04:47AM 34.3540 -94.2100 239° Southwest 498 573 34,000  Level FlightAware
04:48AM 34.2710 -94.3790 239° Southwest 501 577 34,000 60 Level FlightAware
04:48AM 34.2230 -94.4760 239° Southwest 503 579 34,100 60 Climbing FlightAware
04:49AM 34.1670 -94.5870 239° Southwest 504 580 34,100  Level FlightAware
04:50AM 34.1180 -94.6860 239° Southwest 504 580 34,100  Level FlightAware
04:50AM 34.0710 -94.7800 239° Southwest 501 577 34,100 -120 Level FlightAware
04:51AM 34.0160 -94.8880 238° Southwest 497 572 34,000 -120 Descending FlightAware
04:52AM 33.9680 -94.9820 238° Southwest 494 568 34,000  Level FlightAware
04:53AM 33.9200 -95.0760 238° Southwest 494 568 34,000 -300 Level FlightAware
04:53AM 33.8700 -95.1780 239° Southwest 496 571 33,600 -1,200 Descending FlightAware
04:54AM 33.8270 -95.2770 242° Southwest 495 570 32,400 -2,700 Descending FlightAware
04:55AM 33.7800 -95.3870 243° Southwest 507 583 29,900 -3,120 Descending FlightAware
04:55AM 33.7540 -95.4470 242° Southwest 513 590 28,400 -3,180 Descending FlightAware
04:56AM 33.7140 -95.5390 242° Southwest 521 600 26,100 -3,660 Descending FlightAware
04:57AM 33.6520 -95.6810 242° Southwest 509 586 23,300 -3,360 Descending FlightAware
04:57AM 33.6040 -95.7920 243° Southwest 489 563 21,200 -2,880 Descending FlightAware
04:58AM 33.5620 -95.8880 242° Southwest 475 547 19,300 -2,880 Descending FlightAware
04:59AM 33.5170 -95.9900 242° Southwest 464 534 17,200 -2,520 Descending FlightAware
04:59AM 33.4870 -96.0570 242° Southwest 454 522 15,800 -2,400 Descending FlightAware
05:00AM 33.4430 -96.1570 242° Southwest 440 506 14,200 -2,340 Descending FlightAware
05:01AM 33.4080 -96.2370 242° Southwest 430 495 13,000 -1,860 Descending FlightAware
05:01AM 33.3660 -96.3330 242° Southwest 418 481 11,600 -1,620 Descending FlightAware
05:02AM 33.3330 -96.4030 241° Southwest 391 450 10,800 -900 Descending FlightAware
05:03AM 33.3020 -96.4720 242° Southwest 352 405 10,500 -480 Descending FlightAware
05:03AM 33.2690 -96.5470 242° Southwest 309 356 10,200 -540 Descending FlightAware
05:04AM 33.2540 -96.5810 242° Southwest 295 339 9,900 -1,020 Descending FlightAware
05:04AM 33.2400 -96.6130 242° Southwest 291 335 9,400 -1,440 Descending FlightAware
05:05AM 33.2220 -96.6530 242° Southwest 288 331 8,700 -1,440 Descending FlightAware
05:05AM 33.2030 -96.6950 242° Southwest 283 326 8,100 -1,320 Descending FlightAware
05:05AM 33.1960 -96.7110 242° Southwest 280 322 7,800 -1,320 Descending FlightAware
05:06AM 33.1790 -96.7500 242° Southwest 275 316 7,200 -1,380 Descending FlightAware
05:06AM 33.1620 -96.7870 241° Southwest 272 313 6,500 -1,320 Descending FlightAware
05:07AM 33.1460 -96.8230 242° Southwest 269 310 6,000 -1,200 Descending FlightAware
05:07AM 33.1300 -96.8580 241° Southwest 267 307 5,400 -1,260 Descending FlightAware
05:08AM 33.1140 -96.8950 243° Southwest 262 302 4,900 -1,200 Descending FlightAware
05:08AM 33.1030 -96.9160 238° Southwest 257 296 4,500 -1,080 Descending FlightAware
05:08AM 33.0850 -96.9480 236° Southwest 234 269 4,100 -840 Descending FlightAware
05:09AM 33.0720 -96.9720 237° Southwest 214 246 3,800 -1,140 Descending FlightAware
05:09AM 33.0590 -96.9960 237° Southwest 207 238 3,200 -1,440 Descending FlightAware
05:10AM 33.0450 -97.0190 234° Southwest 202 232 2,600 -1,140 Descending FlightAware
05:10AM 33.0330 -97.0330 224° Southwest 198 228 2,400 -300 Descending FlightAware
05:10AM 33.0130 -97.0520 219° Southwest 197 227 2,400 -360 Level FlightAware
05:11AM 33.0040 -97.0540 191° South 185 213 2,200 -1,080 Descending FlightAware
05:11AM 32.9800 -97.0540 180° South 151 174 1,700 -600 Descending FlightAware
05:12AM 32.9520 -97.0540 180° South 153 176 1,500 -660 Descending FlightAware
05:13AM 32.9167 -97.0500 180° South 152 175 800 -1,080 Descending Dallas / Fort Worth TRACON